Time;durP1;ratioP1;P1;durP2;ratioP2;P2;SDS_P1;SDS_P2;PMS_P1;PMS_P2;Temp;Humidity;BMP_temperature;BMP_pressure;BME280_temperature;BME280_humidity;BME280_pressure;Samples;Min_cycle;Max_cycle;Signal;HPM_P1;HPM_P2
2022/01/06 00:02:21;;;;;;;23.15;4.22;;;;;;;1.40;100.00;101376.41;6219572;23;20015;-89
2022/01/06 00:04:47;;;;;;;29.67;5.40;;;;;;;1.60;100.00;101414.69;6219316;23;20316;-90
2022/01/06 00:07:15;;;;;;;28.05;4.55;;;;;;;1.37;100.00;101392.75;6169631;23;20012;-89
2022/01/06 00:09:40;;;;;;;28.95;5.05;;;;;;;1.47;100.00;101406.97;6194511;23;20039;-90
2022/01/06 00:12:10;;;;;;;25.35;5.22;;;;;;;1.12;100.00;101364.75;6219352;23;20007;-90
2022/01/06 00:25:39;;;;;;;38.35;6.28;;;;;;;1.30;100.00;101421.03;6223452;23;20015;-89
2022/01/06 00:28:07;;;;;;;30.90;5.30;;;;;;;0.99;100.00;101376.59;6169426;23;20339;-89
2022/01/06 00:30:33;;;;;;;31.50;5.18;;;;;;;1.25;100.00;101423.31;6170127;23;20015;-89
2022/01/06 00:32:58;;;;;;;31.05;5.20;;;;;;;1.08;100.00;101403.44;6168302;23;20008;-89
2022/01/06 00:35:24;;;;;;;24.05;5.13;;;;;;;0.86;100.00;101373.34;6193634;22;20008;-89
2022/01/06 00:37:51;;;;;;;29.77;4.95;;;;;;;1.17;100.00;101438.19;6193458;23;20019;-89
2022/01/06 00:40:16;;;;;;;27.63;5.78;;;;;;;0.80;100.00;101379.25;6169109;23;20028;-89
2022/01/06 00:42:43;;;;;;;21.85;5.05;;;;;;;0.77;100.00;101382.16;6218764;23;20008;-89
2022/01/06 00:45:09;;;;;;;26.27;5.25;;;;;;;1.09;100.00;101443.38;6194180;23;20005;-88
2022/01/06 00:47:35;;;;;;;29.88;5.10;;;;;;;0.61;100.00;101374.72;6194134;23;20099;-88
2022/01/06 00:50:00;;;;;;;30.02;5.28;;;;;;;0.78;100.00;101405.22;6193063;23;20443;-89
2022/01/06 00:52:26;;;;;;;26.02;5.45;;;;;;;0.99;100.00;101446.06;6193507;23;20015;-89
2022/01/06 00:54:54;;;;;;;23.83;5.05;;;;;;;0.73;100.00;101402.13;6193469;23;20097;-89
2022/01/06 00:57:20;;;;;;;28.05;4.85;;;;;;;0.43;100.00;101354.00;6219016;23;20004;-89
2022/01/06 00:59:45;;;;;;;24.63;4.82;;;;;;;0.71;100.00;101404.94;6169171;23;20673;-89
2022/01/06 01:02:11;;;;;;;33.40;5.20;;;;;;;1.01;100.00;101452.09;6194463;23;20019;-89
2022/01/06 01:04:40;;;;;;;25.63;5.15;;;;;;;0.96;100.00;101457.03;6221803;23;20058;-89
2022/01/06 01:07:05;;;;;;;29.80;4.88;;;;;;;0.97;100.00;101461.38;6195781;23;20015;-89
2022/01/06 01:09:34;;;;;;;30.77;5.07;;;;;;;0.25;100.00;101342.28;6222288;23;20031;-89
2022/01/06 01:12:04;;;;;;;29.52;5.25;;;;;;;0.70;100.00;101425.47;6220056;23;20008;-89
2022/01/06 01:14:42;;;;;;;31.98;4.75;;;;;;;0.40;100.00;101380.09;6168933;23;20134;-90
2022/01/06 01:17:14;;;;;;;23.15;4.65;;;;;;;0.82;100.00;101460.91;6218903;23;20004;-89
2022/01/06 01:19:41;;;;;;;27.60;5.15;;;;;;;0.84;100.00;101455.44;6219746;23;20343;-89
2022/01/06 01:22:08;;;;;;;34.85;4.93;;;;;;;0.81;100.00;101456.56;6219267;23;20008;-90
2022/01/06 01:24:34;;;;;;;29.63;5.45;;;;;;;0.41;100.00;101397.81;6169319;23;20365;-89
2022/01/06 01:26:59;;;;;;;34.65;5.03;;;;;;;0.16;100.00;101358.13;6218320;23;20095;-89
2022/01/06 01:29:27;;;;;;;27.17;4.45;;;;;;;0.27;100.00;101381.19;6193770;23;20086;-89
2022/01/06 01:31:55;;;;;;;33.17;5.10;;;;;;;0.07;100.00;101352.75;6218007;23;20442;-89
2022/01/06 01:34:26;;;;;;;29.92;5.68;;;;;;;0.77;100.00;101483.66;6218369;23;20461;-89
2022/01/06 01:36:55;;;;;;;28.58;4.45;;;;;;;0.48;100.00;101441.69;6218006;23;20427;-88
2022/01/06 01:39:21;;;;;;;31.58;4.90;;;;;;;0.68;100.00;101472.00;6218118;23;20382;-89
2022/01/06 01:41:51;;;;;;;32.17;4.95;;;;;;;0.43;100.00;101435.91;6217899;23;20008;-89
2022/01/06 01:44:19;;;;;;;31.33;5.13;;;;;;;0.28;100.00;101414.06;6217981;23;20004;-88
2022/01/06 01:46:58;;;;;;;32.33;5.13;;;;;;;0.68;100.00;101490.69;6169378;23;20004;-89
2022/01/06 01:51:52;;;;;;;28.92;4.80;;;;;;;-0.02;100.00;101384.56;6245884;23;20147;-89
2022/01/06 01:54:18;;;;;;;31.92;4.88;;;;;;;-0.07;100.00;101389.47;6218770;23;20039;-88
2022/01/06 01:56:44;;;;;;;28.23;5.15;;;;;;;-0.02;100.00;101402.41;6218164;23;20086;-89
2022/01/06 01:59:13;;;;;;;31.55;4.93;;;;;;;-0.02;100.00;101405.91;6193127;23;20012;-89
2022/01/06 02:01:42;;;;;;;28.60;4.82;;;;;;;0.49;100.00;101492.28;6218375;23;20008;-88
2022/01/06 02:04:08;;;;;;;26.75;4.85;;;;;;;-0.11;100.00;101405.88;6218353;23;20004;-89
2022/01/06 02:06:33;;;;;;;32.10;4.65;;;;;;;0.58;100.00;101521.88;6168546;23;20075;-90
2022/01/06 02:09:02;;;;;;;24.80;5.05;;;;;;;0.58;100.00;101529.88;6193880;23;20424;-90
2022/01/06 02:11:29;;;;;;;25.38;4.90;;;;;;;0.52;100.00;101513.38;6218704;23;20000;-90
2022/01/06 02:13:59;;;;;;;35.35;5.20;;;;;;;0.14;100.00;101448.13;6169490;23;20016;-89
2022/01/06 02:16:27;;;;;;;29.85;4.85;;;;;;;-0.03;100.00;101430.06;6193220;23;20095;-89
2022/01/06 02:18:58;;;;;;;30.10;4.32;;;;;;;0.28;100.00;101481.66;6218545;23;20335;-89
2022/01/06 02:21:23;;;;;;;30.20;4.95;;;;;;;-0.13;100.00;101421.16;6245143;23;20020;-89
2022/01/06 02:23:49;;;;;;;33.85;4.82;;;;;;;0.05;100.00;101451.59;6194565;23;20012;-89
2022/01/06 02:26:15;;;;;;;30.40;5.10;;;;;;;0.41;100.00;101517.97;6170486;23;20004;-90
2022/01/06 02:28:41;;;;;;;34.28;4.75;;;;;;;-0.22;100.00;101406.81;6195676;23;20019;-89
2022/01/06 02:31:07;;;;;;;30.92;5.32;;;;;;;0.47;100.00;101534.31;6219769;23;20024;-88
2022/01/06 02:33:33;;;;;;;31.95;4.75;;;;;;;0.17;100.00;101476.41;6219680;23;20343;-88
2022/01/06 02:35:58;;;;;;;27.08;5.00;;;;;;;0.17;100.00;101481.72;6194216;23;20011;-88
2022/01/06 02:38:30;;;;;;;31.80;4.68;;;;;;;0.13;100.00;101472.28;6194590;23;20487;-88
2022/01/06 02:40:55;;;;;;;29.10;4.90;;;;;;;0.38;100.00;101521.75;6219694;23;20089;-88
2022/01/06 02:43:24;;;;;;;31.88;4.70;;;;;;;0.44;100.00;101525.72;6220109;23;20035;-88
2022/01/06 02:45:53;;;;;;;37.65;4.95;;;;;;;-0.29;100.00;101425.16;6219115;23;20004;-89
2022/01/06 02:48:19;;;;;;;28.92;4.43;;;;;;;0.36;100.00;101529.03;6170213;23;20003;-88
2022/01/06 02:50:49;;;;;;;25.75;5.07;;;;;;;-0.31;100.00;101421.78;6194800;23;20439;-88
2022/01/06 02:53:21;;;;;;;32.78;4.68;;;;;;;-0.13;100.00;101458.50;6194811;23;20016;-88
2022/01/06 02:55:50;;;;;;;26.42;5.05;;;;;;;0.27;100.00;101525.34;6194269;23;20008;-89
2022/01/06 02:58:19;;;;;;;34.50;4.75;;;;;;;-0.04;100.00;101489.75;6246262;23;20000;-88
2022/01/06 03:00:45;;;;;;;31.45;4.18;;;;;;;-0.41;100.00;101423.53;6219498;23;20437;-88
2022/01/06 03:03:13;;;;;;;25.85;4.20;;;;;;;-0.20;100.00;101460.88;6219343;23;20015;-88
2022/01/06 03:05:42;;;;;;;31.42;4.38;;;;;;;-0.44;100.00;101424.63;6219663;23;19996;-89
2022/01/06 03:08:07;;;;;;;31.83;4.78;;;;;;;-0.37;100.00;101446.28;6194496;23;20008;-89
2022/01/06 03:10:41;;;;;;;29.38;4.60;;;;;;;-0.54;100.00;101421.88;6219326;23;20035;-89
2022/01/06 03:13:12;;;;;;;27.08;4.18;;;;;;;-0.49;100.00;101420.66;6219749;23;20316;-88
2022/01/06 03:15:37;;;;;;;32.08;4.78;;;;;;;0.05;100.00;101525.50;6195377;23;20348;-89
2022/01/06 03:18:06;;;;;;;32.33;5.63;;;;;;;-0.50;100.00;101425.16;6194683;23;20011;-89
2022/01/06 03:20:34;;;;;;;31.00;4.60;;;;;;;-0.08;100.00;101491.81;6219347;23;20391;-89
2022/01/06 03:23:05;;;;;;;31.85;4.53;;;;;;;-0.47;100.00;101434.69;6195072;23;20015;-89
2022/01/06 03:25:30;;;;;;;33.05;4.28;;;;;;;-0.05;100.00;101512.06;6219616;23;20008;-90
2022/01/06 03:27:56;;;;;;;31.13;4.95;;;;;;;-0.47;100.00;101440.03;6169435;23;20061;-89
2022/01/06 03:30:25;;;;;;;33.63;5.10;;;;;;;-0.46;100.00;101445.22;6218897;23;20331;-89
2022/01/06 03:32:51;;;;;;;26.60;4.80;;;;;;;-0.10;100.00;101512.47;6194643;23;20016;-90
2022/01/06 03:35:20;;;;;;;36.75;5.00;;;;;;;-0.38;100.00;101480.09;6218813;23;20007;-89
2022/01/06 03:37:55;;;;;;;33.05;4.47;;;;;;;-0.52;100.00;101455.56;6246263;23;20011;-90
2022/01/06 03:40:21;;;;;;;30.35;5.28;;;;;;;-0.02;100.00;101535.81;6219506;23;20015;-89
2022/01/06 03:42:47;;;;;;;25.17;4.18;;;;;;;-0.43;100.00;101473.44;6219450;23;20351;-90
2022/01/06 03:45:15;;;;;;;35.85;4.60;;;;;;;-0.01;100.00;101532.19;6218575;23;20000;-90
2022/01/06 03:47:42;;;;;;;27.35;4.00;;;;;;;-0.40;100.00;101473.19;6219501;23;20065;-90
2022/01/06 03:50:11;;;;;;;31.42;4.40;;;;;;;-0.40;100.00;101476.72;6219247;23;20008;-90
2022/01/06 03:52:39;;;;;;;32.85;4.30;;;;;;;-0.46;100.00;101463.06;6219242;23;20004;-90
2022/01/06 03:55:09;;;;;;;23.63;4.28;;;;;;;-0.33;100.00;101482.38;6219171;23;20031;-90
2022/01/06 03:57:34;;;;;;;27.85;4.88;;;;;;;-0.17;100.00;101513.13;6224785;23;20055;-89
2022/01/06 04:00:01;;;;;;;33.75;4.90;;;;;;;-0.46;100.00;101466.56;6227196;23;20008;-90
2022/01/06 04:02:27;;;;;;;36.85;5.38;;;;;;;-0.19;100.00;101522.06;6221202;23;20004;-90
2022/01/06 04:04:55;;;;;;;23.67;5.20;;;;;;;0.01;100.00;101535.56;6224323;23;20019;-90
2022/01/06 04:07:21;;;;;;;24.13;4.10;;;;;;;-0.44;100.00;101458.44;6222230;23;20012;-90
2022/01/06 04:09:47;;;;;;;29.08;4.50;;;;;;;0.26;100.00;101563.69;6221725;23;20375;-89
2022/01/06 04:12:18;;;;;;;33.70;4.97;;;;;;;-0.43;100.00;101450.31;6194137;23;20028;-90
2022/01/06 04:14:46;;;;;;;29.42;5.13;;;;;;;0.12;100.00;101532.00;6245824;23;20004;-90
2022/01/06 04:17:12;;;;;;;24.65;3.97;;;;;;;-0.34;100.00;101464.69;6219060;23;20000;-89
2022/01/06 04:19:40;;;;;;;29.13;4.32;;;;;;;0.07;100.00;101532.38;6218503;23;20450;-89
2022/01/06 04:22:06;;;;;;;32.03;5.05;;;;;;;-0.29;100.00;101485.66;6218807;23;20008;-89
2022/01/06 04:24:32;;;;;;;26.20;4.28;;;;;;;-0.34;100.00;101483.34;6194202;23;20004;-89
2022/01/06 04:26:57;;;;;;;32.15;4.38;;;;;;;0.03;100.00;101549.63;6219154;23;20057;-89
2022/01/06 04:29:23;;;;;;;26.27;4.68;;;;;;;-0.36;100.00;101494.13;6218715;23;20078;-89
2022/01/06 04:31:49;;;;;;;25.80;4.28;;;;;;;-0.39;100.00;101490.91;6218926;23;20027;-89
2022/01/06 04:34:15;;;;;;;28.98;4.78;;;;;;;0.17;100.00;101583.97;6218809;23;20454;-89
2022/01/06 04:36:47;;;;;;;30.45;4.38;;;;;;;-0.29;100.00;101506.97;6218329;23;20012;-89
2022/01/06 04:39:15;;;;;;;33.70;4.75;;;;;;;0.32;100.00;101586.34;6195015;23;20004;-89
2022/01/06 04:41:41;;;;;;;30.73;4.65;;;;;;;-0.40;100.00;101479.41;6194398;23;20109;-89
2022/01/06 04:44:09;;;;;;;28.42;4.80;;;;;;;0.11;100.00;101568.50;6218740;23;20008;-89
2022/01/06 04:46:35;;;;;;;29.13;4.82;;;;;;;-0.41;100.00;101496.34;6193523;23;20008;-89
2022/01/06 04:49:00;;;;;;;27.90;4.30;;;;;;;-0.45;100.00;101500.25;6193349;23;20103;-89
2022/01/06 04:51:26;;;;;;;31.10;4.57;;;;;;;-0.15;100.00;101552.00;6193429;23;20091;-89
2022/01/06 04:53:54;;;;;;;29.83;4.20;;;;;;;-0.52;100.00;101493.72;6218111;23;20008;-89
2022/01/06 04:56:19;;;;;;;26.13;4.28;;;;;;;-0.06;100.00;101559.25;6193238;23;20012;-87
2022/01/06 04:58:48;;;;;;;30.23;4.47;;;;;;;-0.51;100.00;101503.44;6220255;23;20377;-87
2022/01/06 05:01:14;;;;;;;28.65;5.10;;;;;;;-0.51;100.00;101505.25;6194125;23;20011;-89
2022/01/06 05:03:45;;;;;;;33.78;4.72;;;;;;;-0.42;100.00;101523.16;6193886;23;20398;-89
2022/01/06 05:06:11;;;;;;;28.33;5.10;;;;;;;-0.42;100.00;101531.97;6245734;23;20000;-89
2022/01/06 05:08:36;;;;;;;35.15;5.03;;;;;;;-0.34;100.00;101551.84;6193464;23;20339;-89
2022/01/06 05:11:02;;;;;;;30.65;5.22;;;;;;;-0.15;100.00;101588.50;6193048;23;20008;-89
2022/01/06 05:13:27;;;;;;;32.10;5.10;;;;;;;-0.03;100.00;101616.81;6218859;23;20012;-89
2022/01/06 05:15:56;;;;;;;31.38;4.72;;;;;;;-0.49;100.00;101549.44;6193009;23;20008;-88
2022/01/06 05:18:25;;;;;;;27.80;4.50;;;;;;;-0.01;100.00;101630.91;6245016;23;20080;-88
2022/01/06 05:21:04;;;;;;;25.60;4.45;;;;;;;-0.29;100.00;101589.66;6169216;23;20351;-92
2022/01/06 05:23:32;;;;;;;30.30;4.45;;;;;;;-0.33;100.00;101586.38;6195353;22;20071;-90
2022/01/06 05:25:58;;;;;;;25.73;4.65;;;;;;;-0.82;100.00;101519.25;6194516;23;20001;-89
2022/01/06 05:28:31;;;;;;;25.55;4.32;;;;;;;-0.83;100.00;101527.38;6193483;23;20016;-89
2022/01/06 05:30:57;;;;;;;17.55;4.55;;;;;;;-0.45;100.00;101595.38;6218603;23;20458;-90
2022/01/06 05:33:25;;;;;;;30.48;4.28;;;;;;;-0.47;100.00;101602.66;6218863;23;20011;-90
2022/01/06 05:35:51;;;;;;;21.38;4.43;;;;;;;-0.91;100.00;101539.50;6218568;23;20358;-89
2022/01/06 05:38:17;;;;;;;28.52;4.85;;;;;;;-0.59;100.00;101597.38;6218238;23;20004;-89
2022/01/06 05:40:42;;;;;;;30.20;4.90;;;;;;;-0.92;100.00;101545.78;6218233;23;20000;-88
2022/01/06 05:43:08;;;;;;;28.33;4.63;;;;;;;-0.92;100.00;101558.28;6218411;23;20000;-88
2022/01/06 05:45:33;;;;;;;29.48;4.88;;;;;;;-1.02;100.00;101536.84;6244748;23;20071;-88
2022/01/06 05:48:01;;;;;;;29.42;4.97;;;;;;;-0.57;100.00;101619.41;6218338;23;20505;-88
2022/01/06 05:50:39;;;;;;;24.65;5.10;;;;;;;-0.91;100.00;101573.31;6218593;23;20058;-89
2022/01/06 05:53:10;;;;;;;27.85;4.90;;;;;;;-1.02;100.00;101552.81;6218735;23;20014;-89
2022/01/06 05:55:38;;;;;;;25.55;4.85;;;;;;;-1.12;100.00;101543.88;6220787;23;20000;-88
2022/01/06 05:58:04;;;;;;;26.70;5.18;;;;;;;-0.72;100.00;101629.47;6197545;23;20015;-89
2022/01/06 06:00:32;;;;;;;30.88;4.85;;;;;;;-0.69;100.00;101638.19;6221794;23;20008;-91
2022/01/06 06:03:01;;;;;;;33.10;5.25;;;;;;;-1.18;100.00;101563.00;6198526;23;20098;-89
2022/01/06 06:05:27;;;;;;;30.80;5.22;;;;;;;-1.14;100.00;101586.59;6221910;23;20485;-90
2022/01/06 06:07:52;;;;;;;27.67;4.50;;;;;;;-1.21;100.00;101577.44;6220922;23;20000;-89
2022/01/06 06:10:27;;;;;;;27.50;4.82;;;;;;;-1.32;100.00;101572.94;6196481;23;20016;-93
2022/01/06 06:12:59;;;;;;;27.40;4.95;;;;;;;-1.33;100.00;101571.25;6224466;23;20008;-92
2022/01/06 06:15:47;;;;;;;28.02;4.93;;;;;;;-1.35;100.00;101572.34;6198873;23;20008;-94
2022/01/06 06:18:16;;;;;;;27.50;4.80;;;;;;;-0.91;100.00;101646.06;6216350;23;20375;-89
2022/01/06 06:20:47;;;;;;;31.00;5.72;;;;;;;-1.35;100.00;101580.31;6171502;23;20019;-89
2022/01/06 06:23:14;;;;;;;27.85;5.13;;;;;;;-0.88;100.00;101661.81;6172105;23;20012;-90
2022/01/06 06:25:56;;;;;;;35.70;6.60;;;;;;;-1.04;100.00;101631.19;6197167;23;20328;-91
2022/01/06 06:28:25;;;;;;;27.13;5.20;;;;;;;-0.95;100.00;101644.59;6221177;23;20008;-92
2022/01/06 06:31:10;;;;;;;29.90;6.00;;;;;;;-1.08;100.00;101603.91;6164928;23;20027;-92
2022/01/06 06:33:42;;;;;;;27.63;5.47;;;;;;;-1.30;100.00;101589.66;6169014;23;20038;-92
2022/01/06 06:36:09;;;;;;;31.58;6.85;;;;;;;-1.30;100.00;101594.09;6191298;23;20342;-90
2022/01/06 06:38:36;;;;;;;25.30;5.47;;;;;;;-1.33;100.00;101589.03;6189988;23;20332;-92
2022/01/06 06:41:13;;;;;;;34.88;5.82;;;;;;;-1.32;100.00;101591.56;6165292;23;20149;-92
2022/01/06 06:43:52;;;;;;;30.73;5.75;;;;;;;-1.34;100.00;101579.34;6191472;23;20005;-93
2022/01/06 06:46:21;;;;;;;34.75;6.22;;;;;;;-1.25;100.00;101607.91;6190166;23;20009;-91
2022/01/06 06:48:47;;;;;;;25.15;5.38;;;;;;;-1.33;100.00;101592.56;6166047;23;20036;-90
2022/01/06 06:51:15;;;;;;;31.05;5.47;;;;;;;-1.22;100.00;101612.16;6190220;23;20012;-90
2022/01/06 06:53:47;;;;;;;29.15;6.18;;;;;;;-0.67;100.00;101710.88;6189984;23;20088;-90
2022/01/06 06:56:16;;;;;;;31.13;5.55;;;;;;;-0.67;100.00;101725.06;6164973;23;20020;-90
2022/01/06 06:58:58;;;;;;;24.67;5.22;;;;;;;-1.36;100.00;101605.25;6189726;23;20013;-90
2022/01/06 07:01:30;;;;;;;28.95;5.75;;;;;;;-1.35;100.00;101609.59;6189800;23;20339;-90
2022/01/06 07:03:59;;;;;;;29.48;5.50;;;;;;;-1.28;100.00;101621.47;6165606;23;20067;-90
2022/01/06 07:06:25;;;;;;;29.48;5.10;;;;;;;-0.90;100.00;101685.06;6139955;23;20009;-91
2022/01/06 07:08:51;;;;;;;32.85;5.50;;;;;;;-1.35;100.00;101610.44;6190167;23;20087;-91
2022/01/06 07:11:17;;;;;;;28.65;5.65;;;;;;;-1.30;100.00;101623.41;6189890;23;20031;-90
2022/01/06 07:13:45;;;;;;;37.13;6.13;;;;;;;-1.28;100.00;101632.13;6189257;23;20092;-91
2022/01/06 07:16:14;;;;;;;31.83;6.22;;;;;;;-0.94;100.00;101698.75;6165298;23;20016;-90
2022/01/06 07:18:40;;;;;;;29.48;6.30;;;;;;;-1.37;100.00;101627.50;6189913;23;20010;-90
2022/01/06 07:21:06;;;;;;;29.17;5.40;;;;;;;-0.89;100.00;101718.75;6166000;23;20012;-90
2022/01/06 07:23:34;;;;;;;31.52;5.63;;;;;;;-1.34;100.00;101651.25;6190162;23;20032;-90
2022/01/06 07:26:16;;;;;;;28.50;5.80;;;;;;;-1.38;100.00;101650.63;6190058;23;20108;-91
2022/01/06 07:28:42;;;;;;;30.08;5.32;;;;;;;-1.03;100.00;101713.63;6189829;23;20143;-90
2022/01/06 07:31:35;;;;;;;;;;;;;;;;;;;;;
2022/01/06 07:34:06;;;;;;;;;;;;;;;-0.66;100.00;101774.75;6226277;23;20410;-90
2022/01/06 07:37:02;;;;;;;;;;;;;;;;;;;;;
2022/01/06 07:39:31;;;;;;;28.35;5.70;;;;;;;-1.33;100.00;101664.44;6183867;23;20075;-90
2022/01/06 07:41:57;;;;;;;32.13;5.65;;;;;;;-1.41;100.00;101656.19;6219668;23;20008;-90
2022/01/06 07:44:22;;;;;;;28.73;5.97;;;;;;;-0.98;100.00;101730.09;6219500;23;20007;-90
2022/01/06 07:46:50;;;;;;;24.75;5.45;;;;;;;-1.35;100.00;101687.66;6219514;23;20004;-90
2022/01/06 07:49:17;;;;;;;28.75;5.65;;;;;;;-1.47;100.00;101669.97;6219129;23;20003;-90
2022/01/06 07:51:45;;;;;;;26.70;6.18;;;;;;;-1.10;100.00;101725.72;6219648;23;20039;-90
2022/01/06 07:54:16;;;;;;;28.00;5.88;;;;;;;-1.44;100.00;101678.56;6194290;23;20015;-90
2022/01/06 07:56:42;;;;;;;24.60;5.88;;;;;;;-0.90;100.00;101769.47;6194554;23;20035;-90
2022/01/06 07:59:11;;;;;;;28.55;5.93;;;;;;;-1.64;100.00;101666.78;6220371;23;20031;-90
2022/01/06 08:01:41;;;;;;;31.05;6.10;;;;;;;-1.54;100.00;101682.03;6220427;23;20004;-90
2022/01/06 08:04:08;;;;;;;25.00;5.95;;;;;;;-1.21;100.00;101739.88;6220033;23;20402;-90
2022/01/06 08:06:35;;;;;;;36.28;7.25;;;;;;;-1.70;100.00;101667.19;6219286;23;20003;-90
2022/01/06 08:09:02;;;;;;;26.20;6.65;;;;;;;-1.71;100.00;101670.84;6219895;23;20048;-90
2022/01/06 08:11:28;;;;;;;30.45;7.88;;;;;;;-1.70;100.00;101672.53;6219772;23;20042;-90
2022/01/06 08:13:53;;;;;;;32.47;8.23;;;;;;;-1.65;100.00;101678.38;6194886;23;20008;-91
2022/01/06 08:16:22;;;;;;;29.38;8.55;;;;;;;-1.68;100.00;101670.63;6220565;23;20106;-90
2022/01/06 08:19:08;;;;;;;30.38;9.52;;;;;;;-0.95;100.00;101791.13;6195075;23;20011;-91
2022/01/06 08:21:34;;;;;;;32.05;10.48;;;;;;;-1.63;100.00;101681.75;6219748;23;20101;-91
2022/01/06 08:24:00;;;;;;;34.72;9.75;;;;;;;-1.59;100.00;101685.88;6219587;23;20004;-90
2022/01/06 08:26:25;;;;;;;34.83;10.77;;;;;;;-1.62;100.00;101675.47;6194716;23;20010;-90
2022/01/06 08:28:51;;;;;;;32.45;11.40;;;;;;;-1.49;100.00;101691.38;6194321;23;20016;-90
2022/01/06 08:31:25;;;;;;;38.10;13.32;;;;;;;-1.65;100.00;101662.41;6194540;23;20077;-93
2022/01/06 08:33:58;;;;;;;43.20;14.02;;;;;;;-0.63;100.00;101803.81;6220099;23;20063;-95
2022/01/06 08:36:52;;;;;;;42.17;14.98;;;;;;;-0.58;100.00;101801.63;6195649;23;20377;-92
2022/01/06 08:39:27;;;;;;;30.35;13.70;;;;;;;-0.88;100.00;101748.91;6220456;23;20008;-88
2022/01/06 08:42:03;;;;;;;32.75;13.57;;;;;;;-0.83;100.00;101749.38;6221191;23;20427;-92
2022/01/06 08:47:57;;;;;;;42.60;14.25;;;;;;;-0.51;100.00;101799.34;6247241;23;20038;-92
2022/01/06 08:50:41;;;;;;;42.25;14.93;;;;;;;-1.17;100.00;101688.06;6220350;23;20011;-92
2022/01/06 08:53:18;;;;;;;40.67;15.85;;;;;;;-1.04;100.00;101701.28;6220711;23;20011;-92
2022/01/06 08:55:57;;;;;;;45.22;16.92;;;;;;;-1.01;100.00;101705.53;6220288;23;20427;-93
2022/01/06 08:58:40;;;;;;;52.67;18.02;;;;;;;-0.99;100.00;101696.47;6218643;23;20395;-92
2022/01/06 09:01:48;;;;;;;50.13;17.75;;;;;;;-1.03;100.00;101668.34;6219692;23;20505;-93
2022/01/06 09:04:27;;;;;;;50.53;18.08;;;;;;;-0.90;100.00;101689.53;6217555;23;20478;-93
2022/01/06 09:07:20;;;;;;;48.40;18.08;;;;;;;-0.05;100.00;101816.22;6194943;23;20455;-93
2022/01/06 09:10:05;;;;;;;47.05;17.95;;;;;;;-0.02;100.00;101832.81;6218165;23;20011;-93
2022/01/06 09:12:58;;;;;;;50.78;19.35;;;;;;;-0.67;100.00;101700.22;6220515;23;20392;-93
2022/01/06 09:15:29;;;;;;;42.75;17.70;;;;;;;-0.57;100.00;101720.69;6197418;23;20446;-93
2022/01/06 09:18:00;;;;;;;54.45;20.02;;;;;;;0.18;100.00;101819.72;6219906;23;20007;-93
2022/01/06 09:20:27;;;;;;;48.25;18.85;;;;;;;-0.47;100.00;101718.16;6219669;23;20087;-93
2022/01/06 09:23:04;;;;;;;42.53;18.17;;;;;;;-0.44;100.00;101714.41;6220188;23;20012;-93
2022/01/06 09:25:41;;;;;;;45.13;17.50;;;;;;;-0.31;100.00;101731.13;6219158;23;20011;-93
2022/01/06 09:28:09;;;;;;;50.10;18.27;;;;;;;0.21;100.00;101789.25;6194720;23;20055;-93
2022/01/06 09:33:57;;;;;;;53.28;16.75;;;;;;;-0.07;100.00;101727.47;6173980;23;20027;-92
2022/01/06 09:36:46;;;;;;;46.58;17.40;;;;;;;0.07;100.00;101729.84;6187486;23;20378;-93
2022/01/06 09:39:16;;;;;;;39.25;15.77;;;;;;;0.21;100.00;101744.75;6170513;23;20091;-94
2022/01/06 09:41:50;;;;;;;39.95;15.02;;;;;;;0.21;100.00;101728.72;6192133;23;20451;-93
2022/01/06 09:44:39;;;;;;;38.92;13.80;;;;;;;1.04;100.00;101843.88;6191311;23;20078;-93
2022/01/06 09:47:31;;;;;;;;;;;;;;;;;;;;;
2022/01/06 09:50:08;;;;;;;36.10;12.68;;;;;;;0.55;100.00;101736.59;6194911;23;20060;-92
2022/01/06 09:52:48;;;;;;;37.25;12.98;;;;;;;1.05;100.00;101803.66;6191553;23;20004;-93
2022/01/06 09:55:30;;;;;;;37.72;12.40;;;;;;;1.16;100.00;101808.06;6167555;23;20151;-92
2022/01/06 09:58:07;;;;;;;35.03;12.07;;;;;;;1.49;100.00;101851.66;6191554;23;20088;-93
2022/01/06 10:00:40;;;;;;;34.75;11.10;;;;;;;0.92;100.00;101740.69;6190750;23;20031;-93
2022/01/06 10:07:06;;;;;;;31.00;10.02;;;;;;;1.20;100.00;101758.72;6158175;23;20135;-93
2022/01/06 10:10:01;;;;;;;28.98;9.85;;;;;;;1.96;100.00;101861.06;6190709;23;20035;-93
2022/01/06 10:12:35;;;;;;;23.75;8.93;;;;;;;1.81;100.00;101815.06;6191307;23;20305;-93
2022/01/06 10:15:36;;;;;;;;;;;;;;;;;;;;;
2022/01/06 10:21:47;;;;;;;24.38;7.85;;;;;;;2.35;100.00;101842.44;6184626;23;20062;-95
2022/01/06 10:24:28;;;;;;;30.98;7.93;;;;;;;1.78;100.00;101730.53;6172295;23;20008;-93
2022/01/06 10:26:56;;;;;;;30.67;8.27;;;;;;;2.79;100.00;101840.25;6191457;23;20004;-93
2022/01/06 10:29:41;;;;;;;22.27;7.57;;;;;;;2.55;100.00;101739.69;6189661;23;20547;-95
2022/01/06 10:32:42;;;;;;;;;;;;;;;;;;;;;
2022/01/06 10:35:11;;;;;;;25.00;8.05;;;;;;;2.87;100.00;101722.47;6230695;23;20387;-92
2022/01/06 10:37:49;;;;;;;25.73;7.18;;;;;;;2.95;100.00;101727.97;6220367;23;20469;-93
2022/01/06 10:40:35;;;;;;;21.60;6.20;;;;;;;3.03;100.00;101748.69;6220520;23;20389;-92
2022/01/06 10:43:20;;;;;;;22.33;6.07;;;;;;;2.95;100.00;101745.88;6196956;23;20008;-93
2022/01/06 10:46:09;;;;;;;26.42;7.28;;;;;;;3.41;100.00;101826.53;6221452;23;20481;-93
2022/01/06 10:49:17;;;;;;;22.65;6.28;;;;;;;2.83;100.00;101733.63;6227738;23;20004;-93
2022/01/06 10:52:27;;;;;;;20.60;5.93;;;;;;;2.89;100.00;101739.25;6196499;23;20007;-93
2022/01/06 10:55:31;;;;;;;;;;;;;;;;;;;;;
2022/01/06 10:58:43;;;;;;;;;;;;;;;;;;;;;
2022/01/06 11:01:45;;;;;;;23.08;6.72;;;;;;;3.00;100.00;101740.94;6095377;23;20101;-93
2022/01/06 11:04:48;;;;;;;20.33;5.88;;;;;;;3.07;100.00;101749.25;6047765;23;20097;-93
2022/01/06 11:07:49;;;;;;;22.83;5.70;;;;;;;3.68;100.00;101831.16;6197121;23;20501;-94
2022/01/06 11:18:03;;;;;;;;;;;;;;;;;;;;;
2022/01/06 11:20:39;;;;;;;20.05;5.32;;;;;;;4.01;100.00;101815.47;6233784;23;20004;-94
2022/01/06 11:23:59;;;;;;;20.55;5.47;;;;;;;3.50;100.00;101707.63;6217560;23;20317;-93
2022/01/06 11:27:21;;;;;;;20.25;5.80;;;;;;;3.76;99.40;101728.41;6172940;23;20031;-93
2022/01/06 11:33:31;;;;;;;;;;;;;;;;;;;;;
2022/01/06 11:36:54;;;;;;;16.92;5.63;;;;;;;4.76;97.12;101814.47;6215926;23;20091;-96
2022/01/06 11:40:07;;;;;;;18.67;5.55;;;;;;;4.29;96.04;101718.75;6219493;23;20019;-94
2022/01/06 11:50:36;;;;;;;16.98;4.97;;;;;;;5.43;94.51;101709.84;6010039;23;20008;-93
2022/01/06 11:53:23;;;;;;;20.38;5.13;;;;;;;7.76;84.88;101710.66;5953878;24;20023;-93
2022/01/06 11:56:00;;;;;;;16.90;4.20;;;;;;;9.82;75.33;101716.03;5967770;23;20016;-94
2022/01/06 11:59:08;;;;;;;15.38;3.80;;;;;;;11.09;72.70;101723.78;6042992;23;20007;-93
2022/01/06 12:02:02;;;;;;;13.77;3.90;;;;;;;12.11;70.96;101785.69;6165476;23;20061;-93
2022/01/06 12:08:04;;;;;;;11.18;3.80;;;;;;;14.76;61.59;101809.59;6167771;23;20036;-93
2022/01/06 12:10:53;;;;;;;12.48;3.72;;;;;;;15.33;58.35;101728.41;6184808;23;20012;-93
2022/01/06 12:13:27;;;;;;;11.45;3.50;;;;;;;15.85;51.18;101713.56;6217410;23;20008;-93
2022/01/06 12:15:55;;;;;;;;;;;;;;;17.05;56.23;101804.16;6222443;23;20335;-91
2022/01/06 12:18:27;;;;;;;12.38;2.92;;;;;;;17.05;46.31;101717.28;6220000;23;20208;-92
2022/01/06 12:21:07;;;;;;;12.50;4.07;;;;;;;16.71;45.44;101706.03;6219730;23;20011;-93
2022/01/06 12:23:44;;;;;;;9.73;3.28;;;;;;;16.29;46.50;101717.78;6219823;23;20070;-93
2022/01/06 12:26:20;;;;;;;12.57;3.47;;;;;;;17.23;46.34;101773.06;6195155;23;20316;-92
2022/01/06 12:28:53;;;;;;;11.45;3.55;;;;;;;17.57;43.30;101757.69;6172704;23;20015;-93
2022/01/06 12:31:29;;;;;;;8.90;2.92;;;;;;;16.95;43.69;101709.66;6219084;23;20011;-93
2022/01/06 12:34:02;;;;;;;11.88;3.30;;;;;;;17.18;44.35;101746.38;6218831;23;20004;-92
2022/01/06 12:40:29;;;;;;;14.98;4.03;;;;;;;13.86;50.48;101773.88;6186480;23;20066;-94
2022/01/06 12:43:32;;;;;;;15.23;3.88;;;;;;;11.81;57.33;101697.25;6066491;23;20370;-93
2022/01/06 12:46:19;;;;;;;15.38;4.03;;;;;;;11.97;56.18;101773.06;6222383;23;20075;-93